sensor_id;sensor_type;location;lat;lon;timestamp;pressure;altitude;pressure_sealevel;temperature;humidity
45071;BME280;30836;48.906;9.140;2023-07-31T00:00:40;986.34;;;23.60;41.86
45071;BME280;30836;48.906;9.140;2023-07-31T00:01:40;986.34;;;23.61;41.90
45071;BME280;30836;48.906;9.140;2023-07-31T00:02:41;986.36;;;23.61;41.90
45071;BME280;30836;48.906;9.140;2023-07-31T00:03:42;986.38;;;23.60;41.88
45071;BME280;30836;48.906;9.140;2023-07-31T00:04:42;986.38;;;23.60;41.97
45071;BME280;30836;48.906;9.140;2023-07-31T00:05:43;986.38;;;23.60;41.90
45071;BME280;30836;48.906;9.140;2023-07-31T00:06:43;986.42;;;23.61;41.85
45071;BME280;30836;48.906;9.140;2023-07-31T00:07:43;986.36;;;23.61;41.92
45071;BME280;30836;48.906;9.140;2023-07-31T00:08:44;986.40;;;23.61;41.91
45071;BME280;30836;48.906;9.140;2023-07-31T00:09:44;986.40;;;23.62;41.94
45071;BME280;30836;48.906;9.140;2023-07-31T00:10:45;986.42;;;23.63;42.01
45071;BME280;30836;48.906;9.140;2023-07-31T00:11:45;986.42;;;23.64;41.94
45071;BME280;30836;48.906;9.140;2023-07-31T00:12:46;986.42;;;23.67;41.85
45071;BME280;30836;48.906;9.140;2023-07-31T00:13:46;986.40;;;23.68;41.86
45071;BME280;30836;48.906;9.140;2023-07-31T00:14:47;986.40;;;23.68;41.90
45071;BME280;30836;48.906;9.140;2023-07-31T00:15:47;986.38;;;23.68;41.85
45071;BME280;30836;48.906;9.140;2023-07-31T00:16:48;986.40;;;23.69;41.81
45071;BME280;30836;48.906;9.140;2023-07-31T00:17:48;986.40;;;23.69;41.83
45071;BME280;30836;48.906;9.140;2023-07-31T00:18:48;986.40;;;23.68;41.78
45071;BME280;30836;48.906;9.140;2023-07-31T00:19:49;986.40;;;23.68;41.77
45071;BME280;30836;48.906;9.140;2023-07-31T00:20:49;986.40;;;23.68;41.78
45071;BME280;30836;48.906;9.140;2023-07-31T00:21:50;986.40;;;23.67;41.85
45071;BME280;30836;48.906;9.140;2023-07-31T00:22:50;986.42;;;23.64;41.84
45071;BME280;30836;48.906;9.140;2023-07-31T00:23:50;986.38;;;23.61;41.90
45071;BME280;30836;48.906;9.140;2023-07-31T00:24:51;986.38;;;23.60;41.99
45071;BME280;30836;48.906;9.140;2023-07-31T00:25:51;986.38;;;23.58;42.08
45071;BME280;30836;48.906;9.140;2023-07-31T00:26:52;986.38;;;23.56;42.20
45071;BME280;30836;48.906;9.140;2023-07-31T00:27:52;986.38;;;23.50;42.40
45071;BME280;30836;48.906;9.140;2023-07-31T00:28:53;986.40;;;23.44;42.33
45071;BME280;30836;48.906;9.140;2023-07-31T00:29:53;986.40;;;23.42;42.35
45071;BME280;30836;48.906;9.140;2023-07-31T00:30:53;986.42;;;23.41;42.41
45071;BME280;30836;48.906;9.140;2023-07-31T00:31:54;986.42;;;23.39;42.37
45071;BME280;30836;48.906;9.140;2023-07-31T00:32:54;986.44;;;23.40;42.35
45071;BME280;30836;48.906;9.140;2023-07-31T00:33:55;986.46;;;23.41;42.36
45071;BME280;30836;48.906;9.140;2023-07-31T00:34:55;986.46;;;23.42;42.26
45071;BME280;30836;48.906;9.140;2023-07-31T00:35:56;986.46;;;23.43;42.41
45071;BME280;30836;48.906;9.140;2023-07-31T00:36:56;986.48;;;23.42;42.41
45071;BME280;30836;48.906;9.140;2023-07-31T00:37:57;986.48;;;23.39;42.49
45071;BME280;30836;48.906;9.140;2023-07-31T00:38:58;986.48;;;23.38;42.47
45071;BME280;30836;48.906;9.140;2023-07-31T00:39:59;986.52;;;23.36;42.57
45071;BME280;30836;48.906;9.140;2023-07-31T00:40:59;986.56;;;23.35;42.58
45071;BME280;30836;48.906;9.140;2023-07-31T00:41:59;986.52;;;23.33;42.72
45071;BME280;30836;48.906;9.140;2023-07-31T00:43:00;986.50;;;23.31;42.78
45071;BME280;30836;48.906;9.140;2023-07-31T00:44:00;986.52;;;23.29;42.78
45071;BME280;30836;48.906;9.140;2023-07-31T00:45:01;986.52;;;23.28;42.78
45071;BME280;30836;48.906;9.140;2023-07-31T00:46:01;986.50;;;23.28;42.87
45071;BME280;30836;48.906;9.140;2023-07-31T00:47:02;986.50;;;23.29;42.82
45071;BME280;30836;48.906;9.140;2023-07-31T00:48:02;986.50;;;23.31;42.69
45071;BME280;30836;48.906;9.140;2023-07-31T00:49:04;986.52;;;23.33;42.60
45071;BME280;30836;48.906;9.140;2023-07-31T00:50:05;986.52;;;23.42;42.30
45071;BME280;30836;48.906;9.140;2023-07-31T00:51:07;986.50;;;23.58;41.92
45071;BME280;30836;48.906;9.140;2023-07-31T00:52:08;986.48;;;23.76;41.65
45071;BME280;30836;48.906;9.140;2023-07-31T00:53:09;986.48;;;23.92;41.28
45071;BME280;30836;48.906;9.140;2023-07-31T00:54:10;986.48;;;24.05;41.04
45071;BME280;30836;48.906;9.140;2023-07-31T00:55:11;986.46;;;24.16;40.81
45071;BME280;30836;48.906;9.140;2023-07-31T00:56:11;986.42;;;24.25;40.69
45071;BME280;30836;48.906;9.140;2023-07-31T00:57:12;986.40;;;24.33;40.48
45071;BME280;30836;48.906;9.140;2023-07-31T00:58:13;986.38;;;24.40;40.45
45071;BME280;30836;48.906;9.140;2023-07-31T00:59:13;986.40;;;24.45;40.31
45071;BME280;30836;48.906;9.140;2023-07-31T01:00:14;986.40;;;24.50;40.24
45071;BME280;30836;48.906;9.140;2023-07-31T01:01:14;986.40;;;24.53;40.17
45071;BME280;30836;48.906;9.140;2023-07-31T01:02:15;986.42;;;24.56;40.12
45071;BME280;30836;48.906;9.140;2023-07-31T01:03:16;986.40;;;24.57;40.13
45071;BME280;30836;48.906;9.140;2023-07-31T01:04:17;986.44;;;24.59;40.00
45071;BME280;30836;48.906;9.140;2023-07-31T01:05:19;986.42;;;24.62;40.02
45071;BME280;30836;48.906;9.140;2023-07-31T01:10:01;986.40;;;24.58;40.33
45071;BME280;30836;48.906;9.140;2023-07-31T01:11:07;986.36;;;24.43;40.79
45071;BME280;30836;48.906;9.140;2023-07-31T01:12:15;986.34;;;24.27;41.02
45071;BME280;30836;48.906;9.140;2023-07-31T01:13:17;986.31;;;24.13;41.27
45071;BME280;30836;48.906;9.140;2023-07-31T01:13:28;986.27;;;23.93;41.29
45071;BME280;30836;48.906;9.140;2023-07-31T01:14:28;986.29;;;23.94;41.39
45071;BME280;30836;48.906;9.140;2023-07-31T01:15:29;986.27;;;23.88;41.70
45071;BME280;30836;48.906;9.140;2023-07-31T01:16:29;986.27;;;23.78;41.90
45071;BME280;30836;48.906;9.140;2023-07-31T01:17:30;986.31;;;23.68;42.11
45071;BME280;30836;48.906;9.140;2023-07-31T01:18:30;986.27;;;23.60;42.15
45071;BME280;30836;48.906;9.140;2023-07-31T01:19:31;986.27;;;23.54;42.25
45071;BME280;30836;48.906;9.140;2023-07-31T01:20:31;986.25;;;23.49;42.35
45071;BME280;30836;48.906;9.140;2023-07-31T01:27:13;986.11;;;24.07;41.04
45071;BME280;30836;48.906;9.140;2023-07-31T01:28:19;986.11;;;24.16;40.87
45071;BME280;30836;48.906;9.140;2023-07-31T01:30:33;986.05;;;24.24;40.92
45071;BME280;30836;48.906;9.140;2023-07-31T01:31:37;986.05;;;24.26;40.90
45071;BME280;30836;48.906;9.140;2023-07-31T01:32:40;986.03;;;24.27;40.85
45071;BME280;30836;48.906;9.140;2023-07-31T01:33:42;986.05;;;24.29;40.90
45071;BME280;30836;48.906;9.140;2023-07-31T01:34:42;986.05;;;24.29;40.80
45071;BME280;30836;48.906;9.140;2023-07-31T01:35:44;986.05;;;24.25;41.04
45071;BME280;30836;48.906;9.140;2023-07-31T01:36:46;986.01;;;24.18;41.20
45071;BME280;30836;48.906;9.140;2023-07-31T01:37:46;986.01;;;24.13;41.27
45071;BME280;30836;48.906;9.140;2023-07-31T01:38:47;985.99;;;24.11;41.24
45071;BME280;30836;48.906;9.140;2023-07-31T01:39:47;985.97;;;24.12;41.24
45071;BME280;30836;48.906;9.140;2023-07-31T01:40:51;985.95;;;24.13;41.20
45071;BME280;30836;48.906;9.140;2023-07-31T01:41:52;985.97;;;24.12;41.39
45071;BME280;30836;48.906;9.140;2023-07-31T01:42:53;985.99;;;24.10;41.45
45071;BME280;30836;48.906;9.140;2023-07-31T01:43:53;985.99;;;24.10;41.38
45071;BME280;30836;48.906;9.140;2023-07-31T01:44:53;986.01;;;24.10;41.43
45071;BME280;30836;48.906;9.140;2023-07-31T01:45:54;986.03;;;24.07;41.57
45071;BME280;30836;48.906;9.140;2023-07-31T01:46:54;985.99;;;24.01;41.68
45071;BME280;30836;48.906;9.140;2023-07-31T01:47:55;986.01;;;23.98;41.64
45071;BME280;30836;48.906;9.140;2023-07-31T01:48:55;985.99;;;24.00;41.56
45071;BME280;30836;48.906;9.140;2023-07-31T01:49:56;985.99;;;23.99;41.69
45071;BME280;30836;48.906;9.140;2023-07-31T01:50:56;985.99;;;23.96;41.71
45071;BME280;30836;48.906;9.140;2023-07-31T01:52:00;985.99;;;23.94;41.79
45071;BME280;30836;48.906;9.140;2023-07-31T01:53:01;985.97;;;23.92;41.83
45071;BME280;30836;48.906;9.140;2023-07-31T01:54:01;985.97;;;23.87;42.13
45071;BME280;30836;48.906;9.140;2023-07-31T01:55:02;985.95;;;23.70;42.63
45071;BME280;30836;48.906;9.140;2023-07-31T01:56:03;985.93;;;23.52;42.90
45071;BME280;30836;48.906;9.140;2023-07-31T01:57:03;985.93;;;23.37;43.22
45071;BME280;30836;48.906;9.140;2023-07-31T01:58:04;985.93;;;23.25;43.33
45071;BME280;30836;48.906;9.140;2023-07-31T01:59:04;985.87;;;23.17;43.61
45071;BME280;30836;48.906;9.140;2023-07-31T02:00:05;985.85;;;23.11;43.65
45071;BME280;30836;48.906;9.140;2023-07-31T02:01:06;985.87;;;23.08;43.66
45071;BME280;30836;48.906;9.140;2023-07-31T02:02:07;985.83;;;23.03;43.83
45071;BME280;30836;48.906;9.140;2023-07-31T02:03:07;985.83;;;22.98;43.85
45071;BME280;30836;48.906;9.140;2023-07-31T02:04:07;985.85;;;22.95;43.95
45071;BME280;30836;48.906;9.140;2023-07-31T02:05:08;985.82;;;22.90;44.02
45071;BME280;30836;48.906;9.140;2023-07-31T02:06:09;985.82;;;22.84;44.26
45071;BME280;30836;48.906;9.140;2023-07-31T02:07:09;985.80;;;22.79;44.33
45071;BME280;30836;48.906;9.140;2023-07-31T02:08:09;985.76;;;22.77;44.38
45071;BME280;30836;48.906;9.140;2023-07-31T02:09:10;985.78;;;22.76;44.31
45071;BME280;30836;48.906;9.140;2023-07-31T02:10:10;985.72;;;22.76;44.32
45071;BME280;30836;48.906;9.140;2023-07-31T02:11:11;985.72;;;22.76;44.38
45071;BME280;30836;48.906;9.140;2023-07-31T02:12:11;985.70;;;22.73;44.59
45071;BME280;30836;48.906;9.140;2023-07-31T02:13:11;985.72;;;22.69;44.63
45071;BME280;30836;48.906;9.140;2023-07-31T02:14:12;985.70;;;22.65;44.78
45071;BME280;30836;48.906;9.140;2023-07-31T02:15:12;985.72;;;22.60;44.90
45071;BME280;30836;48.906;9.140;2023-07-31T02:16:13;985.74;;;22.56;44.90
45071;BME280;30836;48.906;9.140;2023-07-31T02:17:13;985.72;;;22.54;44.94
45071;BME280;30836;48.906;9.140;2023-07-31T02:18:14;985.72;;;22.53;45.05
45071;BME280;30836;48.906;9.140;2023-07-31T02:19:14;985.70;;;22.51;45.03
45071;BME280;30836;48.906;9.140;2023-07-31T02:20:15;985.70;;;22.51;45.06
45071;BME280;30836;48.906;9.140;2023-07-31T02:21:15;985.68;;;22.52;44.97
45071;BME280;30836;48.906;9.140;2023-07-31T02:22:15;985.68;;;22.54;44.93
45071;BME280;30836;48.906;9.140;2023-07-31T02:23:16;985.66;;;22.53;45.11
45071;BME280;30836;48.906;9.140;2023-07-31T02:24:17;985.62;;;22.50;45.12
45071;BME280;30836;48.906;9.140;2023-07-31T02:25:18;985.64;;;22.48;45.10
45071;BME280;30836;48.906;9.140;2023-07-31T02:26:18;985.64;;;22.46;45.15
45071;BME280;30836;48.906;9.140;2023-07-31T02:27:19;985.66;;;22.43;45.21
45071;BME280;30836;48.906;9.140;2023-07-31T02:28:19;985.64;;;22.41;45.22
45071;BME280;30836;48.906;9.140;2023-07-31T02:29:20;985.60;;;22.38;45.41
45071;BME280;30836;48.906;9.140;2023-07-31T02:30:20;985.60;;;22.33;45.57
45071;BME280;30836;48.906;9.140;2023-07-31T02:31:20;985.62;;;22.30;45.59
45071;BME280;30836;48.906;9.140;2023-07-31T02:32:21;985.60;;;22.30;45.49
45071;BME280;30836;48.906;9.140;2023-07-31T02:33:21;985.58;;;22.31;45.53
45071;BME280;30836;48.906;9.140;2023-07-31T02:34:22;985.54;;;22.31;45.52
45071;BME280;30836;48.906;9.140;2023-07-31T02:35:22;985.54;;;22.31;45.53
45071;BME280;30836;48.906;9.140;2023-07-31T02:36:23;985.54;;;22.31;45.46
45071;BME280;30836;48.906;9.140;2023-07-31T02:37:23;985.54;;;22.33;45.45
45071;BME280;30836;48.906;9.140;2023-07-31T02:38:24;985.50;;;22.35;45.44
45071;BME280;30836;48.906;9.140;2023-07-31T02:39:24;985.52;;;22.37;45.39
45071;BME280;30836;48.906;9.140;2023-07-31T02:40:24;985.46;;;22.37;45.38
45071;BME280;30836;48.906;9.140;2023-07-31T02:41:25;985.44;;;22.36;45.45
45071;BME280;30836;48.906;9.140;2023-07-31T02:42:25;985.44;;;22.35;45.39
45071;BME280;30836;48.906;9.140;2023-07-31T02:43:26;985.42;;;22.36;45.34
45071;BME280;30836;48.906;9.140;2023-07-31T02:44:26;985.40;;;22.37;45.31
45071;BME280;30836;48.906;9.140;2023-07-31T02:45:27;985.38;;;22.36;45.39
45071;BME280;30836;48.906;9.140;2023-07-31T02:46:27;985.36;;;22.35;45.37
45071;BME280;30836;48.906;9.140;2023-07-31T02:47:27;985.38;;;22.35;45.44
45071;BME280;30836;48.906;9.140;2023-07-31T02:48:28;985.38;;;22.35;45.48
45071;BME280;30836;48.906;9.140;2023-07-31T02:49:28;985.38;;;22.36;45.45
45071;BME280;30836;48.906;9.140;2023-07-31T02:50:29;985.36;;;22.36;45.40
45071;BME280;30836;48.906;9.140;2023-07-31T02:51:29;985.38;;;22.36;45.40
45071;BME280;30836;48.906;9.140;2023-07-31T02:52:30;985.40;;;22.35;45.43
45071;BME280;30836;48.906;9.140;2023-07-31T02:53:30;985.42;;;22.36;45.36
45071;BME280;30836;48.906;9.140;2023-07-31T02:54:31;985.40;;;22.36;45.40
45071;BME280;30836;48.906;9.140;2023-07-31T02:55:31;985.40;;;22.33;45.57
45071;BME280;30836;48.906;9.140;2023-07-31T02:56:32;985.40;;;22.31;45.47
45071;BME280;30836;48.906;9.140;2023-07-31T02:57:32;985.42;;;22.30;45.51
45071;BME280;30836;48.906;9.140;2023-07-31T02:58:32;985.40;;;22.29;45.49
45071;BME280;30836;48.906;9.140;2023-07-31T02:59:33;985.38;;;22.30;45.44
45071;BME280;30836;48.906;9.140;2023-07-31T03:00:33;985.42;;;22.30;45.56
45071;BME280;30836;48.906;9.140;2023-07-31T03:01:34;985.42;;;22.28;45.55
45071;BME280;30836;48.906;9.140;2023-07-31T03:02:34;985.44;;;22.28;45.58
45071;BME280;30836;48.906;9.140;2023-07-31T03:03:35;985.42;;;22.28;45.49
45071;BME280;30836;48.906;9.140;2023-07-31T03:04:35;985.42;;;22.30;45.50
45071;BME280;30836;48.906;9.140;2023-07-31T03:05:36;985.40;;;22.28;45.52
45071;BME280;30836;48.906;9.140;2023-07-31T03:06:36;985.44;;;22.25;45.67
45071;BME280;30836;48.906;9.140;2023-07-31T03:07:37;985.42;;;22.23;45.70
45071;BME280;30836;48.906;9.140;2023-07-31T03:08:37;985.44;;;22.22;45.65
45071;BME280;30836;48.906;9.140;2023-07-31T03:09:38;985.44;;;22.23;45.69
45071;BME280;30836;48.906;9.140;2023-07-31T03:10:38;985.48;;;22.24;45.61
45071;BME280;30836;48.906;9.140;2023-07-31T03:11:38;985.48;;;22.26;45.60
45071;BME280;30836;48.906;9.140;2023-07-31T03:12:39;985.48;;;22.26;45.64
45071;BME280;30836;48.906;9.140;2023-07-31T03:13:40;985.48;;;22.30;45.50
45071;BME280;30836;48.906;9.140;2023-07-31T03:14:41;985.50;;;22.43;44.99
45071;BME280;30836;48.906;9.140;2023-07-31T03:15:42;985.50;;;22.63;44.49
45071;BME280;30836;48.906;9.140;2023-07-31T03:16:42;985.54;;;22.83;44.15
45071;BME280;30836;48.906;9.140;2023-07-31T03:17:43;985.52;;;22.99;43.83
45071;BME280;30836;48.906;9.140;2023-07-31T03:18:43;985.50;;;23.12;43.49
45071;BME280;30836;48.906;9.140;2023-07-31T03:19:44;985.50;;;23.21;43.48
45071;BME280;30836;48.906;9.140;2023-07-31T03:20:44;985.52;;;23.24;43.40
45071;BME280;30836;48.906;9.140;2023-07-31T03:21:45;985.48;;;23.25;43.44
45071;BME280;30836;48.906;9.140;2023-07-31T03:22:45;985.48;;;23.28;43.29
45071;BME280;30836;48.906;9.140;2023-07-31T03:23:45;985.48;;;23.34;43.20
45071;BME280;30836;48.906;9.140;2023-07-31T03:24:46;985.46;;;23.40;43.06
45071;BME280;30836;48.906;9.140;2023-07-31T03:26:55;985.50;;;23.51;42.74
45071;BME280;30836;48.906;9.140;2023-07-31T03:27:55;985.48;;;23.56;42.69
45071;BME280;30836;48.906;9.140;2023-07-31T03:28:56;985.52;;;23.62;42.50
45071;BME280;30836;48.906;9.140;2023-07-31T03:29:56;985.52;;;23.66;42.45
45071;BME280;30836;48.906;9.140;2023-07-31T03:30:57;985.54;;;23.69;42.36
45071;BME280;30836;48.906;9.140;2023-07-31T03:31:57;985.56;;;23.72;42.31
45071;BME280;30836;48.906;9.140;2023-07-31T03:32:58;985.54;;;23.74;42.32
45071;BME280;30836;48.906;9.140;2023-07-31T03:33:58;985.58;;;23.73;42.38
45071;BME280;30836;48.906;9.140;2023-07-31T03:34:59;985.58;;;23.68;42.47
45071;BME280;30836;48.906;9.140;2023-07-31T03:35:59;985.54;;;23.63;42.54
45071;BME280;30836;48.906;9.140;2023-07-31T03:37:00;985.54;;;23.59;42.57
45071;BME280;30836;48.906;9.140;2023-07-31T03:38:00;985.54;;;23.59;42.57
45071;BME280;30836;48.906;9.140;2023-07-31T03:39:01;985.56;;;23.62;42.43
45071;BME280;30836;48.906;9.140;2023-07-31T03:40:01;985.56;;;23.66;42.38
45071;BME280;30836;48.906;9.140;2023-07-31T03:41:02;985.56;;;23.70;42.33
45071;BME280;30836;48.906;9.140;2023-07-31T03:42:02;985.52;;;23.73;42.23
45071;BME280;30836;48.906;9.140;2023-07-31T03:43:03;985.54;;;23.74;42.32
45071;BME280;30836;48.906;9.140;2023-07-31T03:44:03;985.50;;;23.74;42.33
45071;BME280;30836;48.906;9.140;2023-07-31T03:45:04;985.52;;;23.75;42.27
45071;BME280;30836;48.906;9.140;2023-07-31T03:46:05;985.52;;;23.78;42.11
45071;BME280;30836;48.906;9.140;2023-07-31T03:47:05;985.56;;;23.79;42.17
45071;BME280;30836;48.906;9.140;2023-07-31T03:48:06;985.58;;;23.75;42.24
45071;BME280;30836;48.906;9.140;2023-07-31T03:49:06;985.58;;;23.69;42.33
45071;BME280;30836;48.906;9.140;2023-07-31T03:50:07;985.56;;;23.64;42.43
45071;BME280;30836;48.906;9.140;2023-07-31T03:51:07;985.56;;;23.60;42.45
45071;BME280;30836;48.906;9.140;2023-07-31T03:52:08;985.56;;;23.54;42.60
45071;BME280;30836;48.906;9.140;2023-07-31T03:53:08;985.54;;;23.48;42.72
45071;BME280;30836;48.906;9.140;2023-07-31T03:54:09;985.52;;;23.47;42.62
45071;BME280;30836;48.906;9.140;2023-07-31T03:55:09;985.56;;;23.48;42.61
45071;BME280;30836;48.906;9.140;2023-07-31T03:56:10;985.52;;;23.48;42.66
45071;BME280;30836;48.906;9.140;2023-07-31T03:57:10;985.54;;;23.44;42.65
45071;BME280;30836;48.906;9.140;2023-07-31T03:58:11;985.54;;;23.40;42.74
45071;BME280;30836;48.906;9.140;2023-07-31T03:59:11;985.52;;;23.35;42.91
45071;BME280;30836;48.906;9.140;2023-07-31T04:00:12;985.52;;;23.31;42.85
45071;BME280;30836;48.906;9.140;2023-07-31T04:01:12;985.52;;;23.30;42.88
45071;BME280;30836;48.906;9.140;2023-07-31T04:02:13;985.48;;;23.31;42.78
45071;BME280;30836;48.906;9.140;2023-07-31T04:03:13;985.48;;;23.31;42.82
45071;BME280;30836;48.906;9.140;2023-07-31T04:04:14;985.46;;;23.28;43.00
45071;BME280;30836;48.906;9.140;2023-07-31T04:05:14;985.46;;;23.23;43.02
45071;BME280;30836;48.906;9.140;2023-07-31T04:06:15;985.46;;;23.21;43.00
45071;BME280;30836;48.906;9.140;2023-07-31T04:07:15;985.48;;;23.20;42.99
45071;BME280;30836;48.906;9.140;2023-07-31T04:08:15;985.44;;;23.19;43.10
45071;BME280;30836;48.906;9.140;2023-07-31T04:09:16;985.44;;;23.18;43.03
45071;BME280;30836;48.906;9.140;2023-07-31T04:10:16;985.46;;;23.17;43.22
45071;BME280;30836;48.906;9.140;2023-07-31T04:11:17;985.46;;;23.11;43.32
45071;BME280;30836;48.906;9.140;2023-07-31T04:12:17;985.44;;;23.05;43.45
45071;BME280;30836;48.906;9.140;2023-07-31T04:13:17;985.48;;;23.05;43.28
45071;BME280;30836;48.906;9.140;2023-07-31T04:14:18;985.48;;;23.08;43.37
45071;BME280;30836;48.906;9.140;2023-07-31T04:15:18;985.48;;;23.09;43.28
45071;BME280;30836;48.906;9.140;2023-07-31T04:16:19;985.46;;;23.11;43.20
45071;BME280;30836;48.906;9.140;2023-07-31T04:17:19;985.46;;;23.10;43.40
45071;BME280;30836;48.906;9.140;2023-07-31T04:18:20;985.42;;;23.11;43.11
45071;BME280;30836;48.906;9.140;2023-07-31T04:19:20;985.42;;;23.13;43.34
45071;BME280;30836;48.906;9.140;2023-07-31T04:20:20;985.44;;;23.13;43.19
45071;BME280;30836;48.906;9.140;2023-07-31T04:21:21;985.42;;;23.17;43.14
45071;BME280;30836;48.906;9.140;2023-07-31T04:22:21;985.46;;;23.20;43.06
45071;BME280;30836;48.906;9.140;2023-07-31T04:23:22;985.44;;;23.21;43.03
45071;BME280;30836;48.906;9.140;2023-07-31T04:24:22;985.46;;;23.23;43.08
45071;BME280;30836;48.906;9.140;2023-07-31T04:25:23;985.46;;;23.24;43.06
45071;BME280;30836;48.906;9.140;2023-07-31T04:26:23;985.44;;;23.27;43.06
45071;BME280;30836;48.906;9.140;2023-07-31T04:27:24;985.44;;;23.27;43.11
45071;BME280;30836;48.906;9.140;2023-07-31T04:28:25;985.44;;;23.24;43.27
45071;BME280;30836;48.906;9.140;2023-07-31T04:29:25;985.44;;;23.22;43.24
45071;BME280;30836;48.906;9.140;2023-07-31T04:30:25;985.42;;;23.24;43.15
45071;BME280;30836;48.906;9.140;2023-07-31T04:31:26;985.42;;;23.28;43.10
45071;BME280;30836;48.906;9.140;2023-07-31T04:32:26;985.44;;;23.32;43.02
45071;BME280;30836;48.906;9.140;2023-07-31T04:33:27;985.40;;;23.38;42.88
45071;BME280;30836;48.906;9.140;2023-07-31T04:34:27;985.42;;;23.40;42.97
45071;BME280;30836;48.906;9.140;2023-07-31T04:35:28;985.40;;;23.39;42.95
45071;BME280;30836;48.906;9.140;2023-07-31T04:36:28;985.42;;;23.39;42.94
45071;BME280;30836;48.906;9.140;2023-07-31T04:37:28;985.40;;;23.39;42.86
45071;BME280;30836;48.906;9.140;2023-07-31T04:38:29;985.38;;;23.42;42.80
45071;BME280;30836;48.906;9.140;2023-07-31T04:39:29;985.38;;;23.44;42.81
45071;BME280;30836;48.906;9.140;2023-07-31T04:40:30;985.40;;;23.45;42.84
45071;BME280;30836;48.906;9.140;2023-07-31T04:41:30;985.42;;;23.47;42.70
45071;BME280;30836;48.906;9.140;2023-07-31T04:42:31;985.38;;;23.53;42.57
45071;BME280;30836;48.906;9.140;2023-07-31T04:43:31;985.40;;;23.58;42.53
45071;BME280;30836;48.906;9.140;2023-07-31T04:44:31;985.38;;;23.60;42.38
45071;BME280;30836;48.906;9.140;2023-07-31T04:45:32;985.40;;;23.62;42.35
45071;BME280;30836;48.906;9.140;2023-07-31T04:46:32;985.44;;;23.64;42.37
45071;BME280;30836;48.906;9.140;2023-07-31T04:47:33;985.40;;;23.68;42.30
45071;BME280;30836;48.906;9.140;2023-07-31T04:48:33;985.40;;;23.72;42.21
45071;BME280;30836;48.906;9.140;2023-07-31T04:49:34;985.40;;;23.74;42.17
45071;BME280;30836;48.906;9.140;2023-07-31T04:50:34;985.38;;;23.75;42.19
45071;BME280;30836;48.906;9.140;2023-07-31T04:51:34;985.40;;;23.74;42.13
45071;BME280;30836;48.906;9.140;2023-07-31T04:52:35;985.38;;;23.73;42.12
45071;BME280;30836;48.906;9.140;2023-07-31T04:53:35;985.38;;;23.72;42.17
45071;BME280;30836;48.906;9.140;2023-07-31T04:54:36;985.34;;;23.66;42.42
45071;BME280;30836;48.906;9.140;2023-07-31T04:55:36;985.38;;;23.61;42.46
45071;BME280;30836;48.906;9.140;2023-07-31T04:56:37;985.36;;;23.64;42.29
45071;BME280;30836;48.906;9.140;2023-07-31T04:57:37;985.32;;;23.68;42.16
45071;BME280;30836;48.906;9.140;2023-07-31T04:58:38;985.36;;;23.68;42.33
45071;BME280;30836;48.906;9.140;2023-07-31T04:59:38;985.36;;;23.61;42.37
45071;BME280;30836;48.906;9.140;2023-07-31T05:00:38;985.38;;;23.59;42.32
45071;BME280;30836;48.906;9.140;2023-07-31T05:01:39;985.34;;;23.64;42.14
45071;BME280;30836;48.906;9.140;2023-07-31T05:02:39;985.32;;;23.71;42.12
45071;BME280;30836;48.906;9.140;2023-07-31T05:03:40;985.34;;;23.77;42.06
45071;BME280;30836;48.906;9.140;2023-07-31T05:04:40;985.32;;;23.82;41.94
45071;BME280;30836;48.906;9.140;2023-07-31T05:05:41;985.31;;;23.81;41.85
45071;BME280;30836;48.906;9.140;2023-07-31T05:06:41;985.31;;;23.76;41.98
45071;BME280;30836;48.906;9.140;2023-07-31T05:07:42;985.23;;;23.75;41.93
45071;BME280;30836;48.906;9.140;2023-07-31T05:08:42;985.25;;;23.70;42.09
45071;BME280;30836;48.906;9.140;2023-07-31T05:09:42;985.25;;;23.63;42.13
45071;BME280;30836;48.906;9.140;2023-07-31T05:10:43;985.21;;;23.61;42.18
45071;BME280;30836;48.906;9.140;2023-07-31T05:11:44;985.23;;;23.56;42.39
45071;BME280;30836;48.906;9.140;2023-07-31T05:12:44;985.23;;;23.54;42.30
45071;BME280;30836;48.906;9.140;2023-07-31T05:13:44;985.23;;;23.53;42.42
45071;BME280;30836;48.906;9.140;2023-07-31T05:14:45;985.25;;;23.49;42.38
45071;BME280;30836;48.906;9.140;2023-07-31T05:15:45;985.21;;;23.47;42.50
45071;BME280;30836;48.906;9.140;2023-07-31T05:16:46;985.27;;;23.44;42.57
45071;BME280;30836;48.906;9.140;2023-07-31T05:17:46;985.21;;;23.44;42.49
45071;BME280;30836;48.906;9.140;2023-07-31T05:18:47;985.19;;;23.50;42.28
45071;BME280;30836;48.906;9.140;2023-07-31T05:19:47;985.15;;;23.57;42.24
45071;BME280;30836;48.906;9.140;2023-07-31T05:20:48;985.19;;;23.60;42.25
45071;BME280;30836;48.906;9.140;2023-07-31T05:21:48;985.15;;;23.64;42.19
45071;BME280;30836;48.906;9.140;2023-07-31T05:22:48;985.15;;;23.69;42.10
45071;BME280;30836;48.906;9.140;2023-07-31T05:23:51;985.15;;;23.70;42.15
45071;BME280;30836;48.906;9.140;2023-07-31T05:24:51;985.21;;;23.62;42.52
45071;BME280;30836;48.906;9.140;2023-07-31T05:25:51;985.21;;;23.50;42.56
45071;BME280;30836;48.906;9.140;2023-07-31T05:26:52;985.23;;;23.44;42.72
45071;BME280;30836;48.906;9.140;2023-07-31T05:27:52;985.25;;;23.46;42.53
45071;BME280;30836;48.906;9.140;2023-07-31T05:28:53;985.25;;;23.52;42.43
45071;BME280;30836;48.906;9.140;2023-07-31T05:29:53;985.25;;;23.58;42.33
45071;BME280;30836;48.906;9.140;2023-07-31T05:30:58;985.25;;;23.54;42.78
45071;BME280;30836;48.906;9.140;2023-07-31T05:31:59;985.25;;;23.44;42.99
45071;BME280;30836;48.906;9.140;2023-07-31T05:33:00;985.25;;;23.34;43.36
45071;BME280;30836;48.906;9.140;2023-07-31T05:34:00;985.23;;;23.14;44.04
45071;BME280;30836;48.906;9.140;2023-07-31T05:35:00;985.21;;;22.95;44.29
45071;BME280;30836;48.906;9.140;2023-07-31T05:36:01;985.19;;;22.84;44.70
45071;BME280;30836;48.906;9.140;2023-07-31T05:37:01;985.19;;;22.76;44.57
45071;BME280;30836;48.906;9.140;2023-07-31T05:38:02;985.21;;;22.70;44.99
45071;BME280;30836;48.906;9.140;2023-07-31T05:39:02;985.19;;;22.55;45.40
45071;BME280;30836;48.906;9.140;2023-07-31T05:40:03;985.17;;;22.43;45.29
45071;BME280;30836;48.906;9.140;2023-07-31T05:41:04;985.11;;;22.40;45.49